METAR stanice u blizini

 

LYBE - Beograd / Surčin, Srbija
Ažurirano: 05/08/2020 13:00
Slaba kiša, Pretežno oblačno
Slaba kiša, Pretežno oblačno
 Pravac vetra calm
Vetar: Tišina
Temperatura: 20°C
Tačka rose: 18°C
Vlažnost: 88%
Pritisak: 1013 hPa
Pregled: Light Rain
Oblaci: Mostly Cloudy
Vidljivost: 10 km
Cloud details: Partly Cloudy 305 m
Mostly Cloudy 1219 m
2020/08/05 11:00 LYBE 051100Z 00000KT 9999 -RA SCT010 BKN040 20/18 Q1013 NOSIG
LYBT - Beograd / Batajnica, Srbija
Ažurirano: 05/08/2020 13:00
Padavine, Delimično oblačno
Padavine, Delimično oblačno
 Pravac vetra SZ
Vetar: SZ 6 km/h
Temperatura: 20°C
Tačka rose: 18°C
Vlažnost: 88%
Pritisak: 1013 hPa
Pregled: Padavine
Oblaci: Partly Cloudy
Vidljivost: 10 km
Cloud details: Partly Cloudy 213 m
Partly Cloudy 1219 m
2020/08/05 11:00 LYBT 051100Z 31003KT 9999 RA SCT007 SCT040 20/18 Q1013 NOSIG
LYVR - Vršac, Srbija
Ažurirano: 05/08/2020 13:00
Slaba kiša, Delimično oblačno
Slaba kiša, Delimično oblačno
 Pravac vetra Z
Vetar: Z 9 km/h
Temperatura: 22°C
Tačka rose: 20°C
Vlažnost: 88%
Pritisak: 1013 hPa
Pregled: Light Rain
Oblaci: Partly Cloudy
Vidljivost: 10 km
Cloud details: Partly Cloudy 213 m
Partly Cloudy 1219 m
2020/08/05 11:00 LYVR 051100Z 26005KT 220V280 9999 -RA SCT007 SCT040 22/20 Q1013 TEMPO BKN007 BKN033
 
LYKV - Lađevci, Srbija
Ažurirano: 05/08/2020 13:00
Slaba kiša, Pretežno oblačno
Slaba kiša, Pretežno oblačno
 Pravac vetra IJI
Vetar: IJI 7 km/h
Temperatura: 20°C
Tačka rose: 19°C
Vlažnost: 94%
Pritisak: 1013 hPa
Pregled: Light Rain
Oblaci: Mostly Cloudy
Vidljivost: 10 km
Cloud details: Partly Cloudy 305 m
Mostly Cloudy 823 m
2020/08/05 11:00 LYKV 051100Z 12004KT 090V180 9999 -RA SCT010 BKN027 20/19 Q1013 NOSIG
LYNI - Niš, Srbija
Ažurirano: 05/08/2020 13:00
Thunderstorm rain, Delimično oblačno
Thunderstorm rain, Delimično oblačno
 Pravac vetra varies
Vetar: varies 4 km/h
Temperatura: 17°C
Tačka rose: 16°C
Vlažnost: 94%
Pritisak: 1015 hPa
Pregled: Thunderstorm Rain
Oblaci: Partly Cloudy
Vidljivost: 7 km
Cloud details: Few Clouds 213 m
Partly Cloudy 762 m
Partly Cloudy 1524 m
2020/08/05 11:00 LYNI 051100Z VRB02KT 7000 TSRA FEW007 SCT025CB SCT050 17/16 Q1015 NOSIG
BKPR - Priština, Srbija
Ažurirano: 05/08/2020 13:30
Light thunderstorm, Padavine, Pretežno oblačno
Light thunderstorm, Padavine, Pretežno oblačno
 Pravac vetra JJZ
Vetar: JJZ 11 km/h
Temperatura: 16°C
Tačka rose: 14°C
Vlažnost: 88%
Pritisak: 1015 hPa
Pregled: Light thunderstorm, Padavine
Oblaci: Mostly Cloudy
Vidljivost: 6 km
Cloud details: Partly Cloudy 366 m
Partly Cloudy 762 m
Mostly Cloudy 1372 m
2020/08/05 11:30 BKPR 051130Z 20006KT 6000 -TSRA SCT012 SCT025CB BKN045 16/14 Q1015 NOSIG
 
LHPP - Pecs / Pogany, Hungary
Ažurirano: 05/08/2020 12:45
Partly Cloudy
Partly Cloudy
 Pravac vetra SSI
Vetar: SSI 20 km/h
Temperatura: 22°C
Tačka rose: 17°C
Vlažnost: 73%
Pritisak: 1014 hPa
Oblaci: Partly Cloudy
Vidljivost: 10 km
Cloud details: Partly Cloudy 488 m
Partly Cloudy 2530 m
2020/08/05 10:45 LHPP 051045Z 02011KT 9999 SCT016 SCT083 22/17 Q1014
LHUD - Szeged, Hungary
Ažurirano: 04/07/2019 01:45
NOT Current
Vedro
Vedro
 Pravac vetra S
Vetar: S 7 km/h
Temperatura: 18°C
Tačka rose: 13°C
Vlažnost: 73%
Pritisak: 1019 hPa
Pregled: Vedro
Vidljivost: greater than 10 km
2019/07/03 23:45 LHUD 032345Z 35004KT CAVOK 18/13 Q1019
LRTR - Timisoara, Romania
Ažurirano: 05/08/2020 13:00
Few Clouds
Few Clouds
 Pravac vetra JZ
Vetar: JZ 26 km/h
Temperatura: 27°C
Heat Index: 28°C
Tačka rose: 19°C
Vlažnost: 62%
Pritisak: 1012 hPa
Oblaci: Few Clouds
Vidljivost: 10 km
Cloud details: Few Clouds 1372 m
2020/08/05 11:00 LRTR 051100Z 22014KT 9999 FEW045 27/19 Q1012 NOSIG
 
LRCV - Craiova, Romania
Ažurirano: 05/08/2020 13:00
Vedro
Vedro
 Pravac vetra I
Vetar: I 24 km/h
Temperatura: 28°C
Heat Index: 28°C
Tačka rose: 14°C
Vlažnost: 42%
Pritisak: 1012 hPa
Pregled: Vedro
Vidljivost: greater than 10 km
2020/08/05 11:00 LRCV 051100Z 08013KT CAVOK 28/14 Q1012
LBSF - Sofia, Bulgaria
Ažurirano: 05/08/2020 13:00
Partly Cloudy
Partly Cloudy
 Pravac vetra IJI
Vetar: IJI 19 km/h
Temperatura: 29°C
Heat Index: 29°C
Tačka rose: 16°C
Vlažnost: 45%
Pritisak: 1011 hPa
Oblaci: Partly Cloudy
Vidljivost: 10 km
Cloud details: Partly Cloudy 2134 m
2020/08/05 11:00 LBSF 051100Z 11010KT 080V140 9999 SCT070 29/16 Q1011 NOSIG
LWSK - Skoplje, Makedonija
Ažurirano: 05/08/2020 13:00
Padavine, Nearby thunderstorm, Oblačno
Padavine, Nearby thunderstorm, Oblačno
 Pravac vetra JJI
Vetar: JJI 11 km/h
Temperatura: 17°C
Tačka rose: 16°C
Vlažnost: 94%
Pritisak: 1015 hPa
Pregled: Padavine, Nearby thunderstorm
Oblaci: Oblačno
Vidljivost: 10 km
Cloud details: Few Clouds 1006 m
Partly Cloudy 1524 m
Oblačno 2530 m
2020/08/05 11:00 LWSK 051100Z 16006KT 9999 RA VCTS FEW033CB SCT050 OVC083 17/16 Q1015 NOSIG
 
LYPG - Podgorica, Crna Gora
Ažurirano: 05/08/2020 13:00
Few Clouds
Few Clouds
 Pravac vetra varies
Vetar: varies 2 km/h
Temperatura: 26°C
Tačka rose: 16°C
Vlažnost: 54%
Pritisak: 1008 hPa
Oblaci: Few Clouds
Vidljivost: 10 km
Cloud details: Few Clouds 1006 m
2020/08/05 11:00 LYPG 051100Z VRB01KT 9999 FEW033 26/16 Q1008 NOSIG
LQSA - Sarajevo, Bosna i Hercegovina
Ažurirano: 05/08/2020 13:00
Mostly Cloudy
Mostly Cloudy
 Pravac vetra varies
Vetar: varies 6 km/h
Temperatura: 21°C
Tačka rose: 15°C
Vlažnost: 69%
Pritisak: 1012 hPa
Oblaci: Mostly Cloudy
Vidljivost: 10 km
Cloud details: Partly Cloudy 762 m
Mostly Cloudy 1372 m
2020/08/05 11:00 LQSA 051100Z VRB03KT 9999 SCT025 BKN045 21/15 Q1012 NOSIG
LDOS - Osijek, Hrvatksa
Ažurirano: 05/08/2020 13:00
Oblačno
Oblačno
 Pravac vetra S
Vetar: S 15 km/h
Temperatura: 19°C
Tačka rose: 17°C
Vlažnost: 88%
Pritisak: 1014 hPa
Oblaci: Oblačno
Vidljivost: 10 km
Cloud details: Mostly Cloudy 396 m
Oblačno 914 m
2020/08/05 11:00 LDOS 051100Z 01008KT 9999 BKN013 OVC030 19/17 Q1014